Time;durP1;ratioP1;P1;durP2;ratioP2;P2;SDS_P1;SDS_P2;PMS_P1;PMS_P2;Temp;Humidity;BMP_temperature;BMP_pressure;BME280_temperature;BME280_humidity;BME280_pressure;Samples;Min_cycle;Max_cycle;Signal;HPM_P1;HPM_P2
2023/06/10 00:01:47;;;;;;;;;9.00;9.00;;;;;;;;5035511;28;47479;-84
2023/06/10 00:04:16;;;;;;;;;12.00;11.00;;;;;;;;5035601;28;45286;-85
2023/06/10 00:06:43;;;;;;;;;9.00;7.50;;;;;;;;5035956;28;45528;-85
2023/06/10 00:09:10;;;;;;;;;10.75;8.75;;;;;;;;5035713;28;45500;-85
2023/06/10 00:11:36;;;;;;;;;16.25;11.00;;;;;;;;5035978;28;45375;-85
2023/06/10 00:14:01;;;;;;;;;10.50;9.00;;;;;;;;5035859;28;45369;-85
2023/06/10 00:16:26;;;;;;;;;12.25;9.25;;;;;;;;5035785;28;45388;-85
2023/06/10 00:18:51;;;;;;;;;15.67;12.33;;;;;;;;5035732;28;45760;-86
2023/06/10 00:21:17;;;;;;;;;11.00;9.67;;;;;;;;5017704;28;47264;-85
2023/06/10 00:23:43;;;;;;;;;11.25;10.50;;;;;;;;5035969;28;45311;-85
2023/06/10 00:26:08;;;;;;;;;17.50;10.00;;;;;;;;5035996;28;45386;-85
2023/06/10 00:28:33;;;;;;;;;11.33;8.00;;;;;;;;5035269;28;45293;-85
2023/06/10 00:30:59;;;;;;;;;14.67;10.33;;;;;;;;5035274;28;46295;-85
2023/06/10 00:33:24;;;;;;;;;14.25;11.00;;;;;;;;5035354;28;45322;-85
2023/06/10 00:35:49;;;;;;;;;12.33;9.00;;;;;;;;5035886;28;45475;-85
2023/06/10 00:38:15;;;;;;;;;11.00;9.00;;;;;;;;5035510;28;45597;-85
2023/06/10 00:40:43;;;;;;;;;11.67;10.00;;;;;;;;5035524;28;46506;-85
2023/06/10 00:43:08;;;;;;;;;14.00;9.25;;;;;;;;5035609;28;45364;-85
2023/06/10 00:45:33;;;;;;;;;12.00;9.67;;;;;;;;5035132;28;45341;-86
2023/06/10 00:47:59;;;;;;;;;12.25;8.25;;;;;;;;5035546;28;45341;-86
2023/06/10 00:50:25;;;;;;;;;11.50;10.00;;;;;;;;5035112;28;46144;-87
2023/06/10 00:52:51;;;;;;;;;13.25;7.75;;;;;;;;5017705;28;45247;-87
2023/06/10 00:55:17;;;;;;;;;8.50;6.25;;;;;;;;5035473;28;45308;-87
2023/06/10 00:57:44;;;;;;;;;5.00;4.25;;;;;;;;5017805;28;45228;-87
2023/06/10 01:00:10;;;;;;;;;7.75;3.75;;;;;;;;5034702;28;45607;-87
2023/06/10 01:02:35;;;;;;;;;4.00;2.25;;;;;;;;5034984;28;45502;-87
2023/06/10 01:05:01;;;;;;;;;2.75;2.50;;;;;;;;5017820;28;45353;-86
2023/06/10 01:07:33;;;;;;;;;6.00;3.00;;;;;;;;5035161;28;45432;-85
2023/06/10 01:10:04;;;;;;;;;7.75;2.25;;;;;;;;5034296;28;46195;-87
2023/06/10 01:12:30;;;;;;;;;4.00;3.00;;;;;;;;5034964;28;45245;-87
2023/06/10 01:14:55;;;;;;;;;3.00;3.00;;;;;;;;5035268;28;45405;-87
2023/06/10 01:17:20;;;;;;;;;3.00;2.33;;;;;;;;5035416;28;45281;-87
2023/06/10 01:19:54;;;;;;;;;5.00;3.25;;;;;;;;5016740;28;47367;-86
2023/06/10 01:22:20;;;;;;;;;4.75;3.50;;;;;;;;5035072;28;45414;-87
2023/06/10 01:24:45;;;;;;;;;4.25;2.75;;;;;;;;5035045;28;45253;-86
2023/06/10 01:27:13;;;;;;;;;3.00;1.33;;;;;;;;5035140;28;45285;-87
2023/06/10 01:29:42;;;;;;;;;5.25;2.75;;;;;;;;5034366;28;45633;-86
2023/06/10 01:32:15;;;;;;;;;6.50;3.50;;;;;;;;5034744;28;45996;-86
2023/06/10 01:34:42;;;;;;;;;6.25;3.00;;;;;;;;5035067;28;45381;-87
2023/06/10 01:37:08;;;;;;;;;1.50;1.50;;;;;;;;5035062;28;45515;-86
2023/06/10 01:39:33;;;;;;;;;4.00;4.00;;;;;;;;5034838;28;46278;-85
2023/06/10 01:41:59;;;;;;;;;4.50;3.75;;;;;;;;5016668;28;45808;-86
2023/06/10 01:44:24;;;;;;;;;3.75;3.00;;;;;;;;5034765;28;45798;-87
2023/06/10 01:46:50;;;;;;;;;3.00;3.00;;;;;;;;5034894;28;45325;-86
2023/06/10 01:49:15;;;;;;;;;4.00;4.00;;;;;;;;5034265;28;46169;-86
2023/06/10 01:51:40;;;;;;;;;5.00;3.50;;;;;;;;5034844;28;45258;-86
2023/06/10 01:54:06;;;;;;;;;3.75;3.00;;;;;;;;5034936;28;46093;-85
2023/06/10 01:56:31;;;;;;;;;3.00;3.00;;;;;;;;5034721;28;45638;-86
2023/06/10 01:58:59;;;;;;;;;5.00;3.00;;;;;;;;5034162;28;46273;-86
2023/06/10 02:01:24;;;;;;;;;4.75;3.00;;;;;;;;5034623;28;45855;-86
2023/06/10 02:03:49;;;;;;;;;2.00;2.00;;;;;;;;5034852;28;45363;-86
2023/06/10 02:06:15;;;;;;;;;3.00;2.50;;;;;;;;5034591;28;45411;-86
2023/06/10 02:08:40;;;;;;;;;2.00;2.00;;;;;;;;5034038;28;46644;-86
2023/06/10 02:11:07;;;;;;;;;4.00;3.00;;;;;;;;5034621;28;45534;-86
2023/06/10 02:13:32;;;;;;;;;6.75;4.00;;;;;;;;5034252;28;45298;-86
2023/06/10 02:15:57;;;;;;;;;4.00;1.00;;;;;;;;5034783;28;45403;-85
2023/06/10 02:18:22;;;;;;;;;4.00;2.67;;;;;;;;5034042;28;46349;-86
2023/06/10 02:20:47;;;;;;;;;2.33;2.33;;;;;;;;5034125;28;45408;-85
2023/06/10 02:23:12;;;;;;;;;7.00;4.00;;;;;;;;5035488;28;45388;-86
2023/06/10 02:25:38;;;;;;;;;2.00;2.00;;;;;;;;5036851;28;45411;-85
2023/06/10 02:28:03;;;;;;;;;3.67;2.00;;;;;;;;5037205;28;45514;-86
2023/06/10 02:30:28;;;;;;;;;3.75;3.00;;;;;;;;5019360;28;45930;-86
2023/06/10 02:32:56;;;;;;;;;5.33;3.00;;;;;;;;5037864;28;45383;-85
2023/06/10 02:35:22;;;;;;;;;3.50;3.50;;;;;;;;5037744;28;45664;-86
2023/06/10 02:37:47;;;;;;;;;4.50;2.00;;;;;;;;5037361;28;47301;-85
2023/06/10 02:40:12;;;;;;;;;9.00;2.33;;;;;;;;5037509;28;45425;-86
2023/06/10 02:42:40;;;;;;;;;2.75;1.75;;;;;;;;5037290;28;45274;-86
2023/06/10 02:45:06;;;;;;;;;3.00;2.00;;;;;;;;5033121;28;45570;-85
2023/06/10 02:47:36;;;;;;;;;2.50;2.25;;;;;;;;5019344;28;47876;-86
2023/06/10 02:50:01;;;;;;;;;6.75;2.25;;;;;;;;5019123;28;45592;-86
2023/06/10 02:52:26;;;;;;;;;5.00;3.00;;;;;;;;5019458;28;45305;-85
2023/06/10 02:54:51;;;;;;;;;1.00;1.00;;;;;;;;5037636;28;45345;-83
2023/06/10 02:57:16;;;;;;;;;4.00;3.00;;;;;;;;5036768;28;47066;-83
2023/06/10 02:59:42;;;;;;;;;4.00;2.67;;;;;;;;5037092;28;45353;-83
2023/06/10 03:02:07;;;;;;;;;4.50;2.50;;;;;;;;5037113;28;45353;-83
2023/06/10 03:04:33;;;;;;;;;1.00;1.00;;;;;;;;5037094;28;45522;-84
2023/06/10 03:07:00;;;;;;;;;2.25;2.25;;;;;;;;5019164;28;47345;-83
2023/06/10 03:09:25;;;;;;;;;2.00;2.00;;;;;;;;5036784;28;45773;-83
2023/06/10 03:11:50;;;;;;;;;4.00;2.00;;;;;;;;5018975;28;45372;-85
2023/06/10 03:14:16;;;;;;;;;2.00;2.00;;;;;;;;5037492;28;45365;-85
2023/06/10 03:16:42;;;;;;;;;2.50;2.00;;;;;;;;5036533;28;47122;-85
2023/06/10 03:19:07;;;;;;;;;3.00;2.00;;;;;;;;5036868;28;45428;-85
2023/06/10 03:21:33;;;;;;;;;5.00;1.50;;;;;;;;5036782;28;45339;-85
2023/06/10 03:23:59;;;;;;;;;3.25;2.00;;;;;;;;5036922;28;45372;-85
2023/06/10 03:26:24;;;;;;;;;5.33;2.33;;;;;;;;5036277;28;45790;-85
2023/06/10 03:28:49;;;;;;;;;4.33;2.00;;;;;;;;5018798;28;45477;-86
2023/06/10 03:31:19;;;;;;;;;3.00;2.00;;;;;;;;5018654;28;45303;-85
2023/06/10 03:33:44;;;;;;;;;3.25;1.75;;;;;;;;5036536;28;45641;-85
2023/06/10 03:36:10;;;;;;;;;4.00;4.00;;;;;;;;5036908;28;45631;-85
2023/06/10 03:38:36;;;;;;;;;2.25;2.25;;;;;;;;5035958;28;45456;-85
2023/06/10 03:41:01;;;;;;;;;4.75;1.50;;;;;;;;5036421;28;45424;-85
2023/06/10 03:43:27;;;;;;;;;3.33;2.33;;;;;;;;5036404;28;45359;-84
2023/06/10 03:45:52;;;;;;;;;3.00;2.00;;;;;;;;5036305;28;46106;-85
2023/06/10 03:48:18;;;;;;;;;4.00;3.50;;;;;;;;5036280;28;45432;-85
2023/06/10 03:50:43;;;;;;;;;4.25;4.00;;;;;;;;5036563;28;45710;-85
2023/06/10 03:53:08;;;;;;;;;4.00;2.67;;;;;;;;5036545;28;45392;-85
2023/06/10 03:55:34;;;;;;;;;2.50;2.50;;;;;;;;5035976;28;45424;-85
2023/06/10 03:57:59;;;;;;;;;4.00;3.00;;;;;;;;5036493;28;45531;-85
2023/06/10 04:00:24;;;;;;;;;4.00;3.00;;;;;;;;5035962;28;45442;-85
2023/06/10 04:02:51;;;;;;;;;2.75;2.75;;;;;;;;5036296;28;45416;-85
2023/06/10 04:05:16;;;;;;;;;3.50;2.00;;;;;;;;5036051;28;47425;-85
2023/06/10 04:07:43;;;;;;;;;4.00;3.00;;;;;;;;5036459;28;45182;-85
2023/06/10 04:10:09;;;;;;;;;2.75;2.75;;;;;;;;5035528;28;45327;-86
2023/06/10 04:12:35;;;;;;;;;4.00;3.00;;;;;;;;5036221;28;45481;-86
2023/06/10 04:15:00;;;;;;;;;2.75;2.75;;;;;;;;5035888;28;46734;-85
2023/06/10 04:17:25;;;;;;;;;3.75;2.00;;;;;;;;5035998;28;45443;-85
2023/06/10 04:19:51;;;;;;;;;3.00;0.00;;;;;;;;5035898;28;45743;-86
2023/06/10 04:22:16;;;;;;;;;3.25;2.00;;;;;;;;5035819;28;45322;-86
2023/06/10 04:24:42;;;;;;;;;2.50;2.50;;;;;;;;5035474;28;45558;-85
2023/06/10 04:27:07;;;;;;;;;4.00;4.00;;;;;;;;5035810;28;45431;-85
2023/06/10 04:29:33;;;;;;;;;3.00;2.00;;;;;;;;5035592;28;45526;-85
2023/06/10 04:31:58;;;;;;;;;3.67;2.67;;;;;;;;5035734;28;45336;-85
2023/06/10 04:34:23;;;;;;;;;3.67;2.67;;;;;;;;5035708;28;46394;-84
2023/06/10 04:36:48;;;;;;;;;3.00;3.00;;;;;;;;5035671;28;45415;-85
2023/06/10 04:39:16;;;;;;;;;3.00;2.00;;;;;;;;5035958;28;45308;-87
2023/06/10 04:41:41;;;;;;;;;3.75;3.00;;;;;;;;5036455;28;45241;-85
2023/06/10 04:44:07;;;;;;;;;3.25;2.25;;;;;;;;5035664;28;46269;-85
2023/06/10 04:46:33;;;;;;;;;3.00;3.00;;;;;;;;5034884;28;45331;-85
2023/06/10 04:48:58;;;;;;;;;4.50;2.00;;;;;;;;5035951;28;45333;-86
2023/06/10 04:51:23;;;;;;;;;2.33;2.33;;;;;;;;5035838;28;45417;-86
2023/06/10 04:53:48;;;;;;;;;3.33;2.00;;;;;;;;5035309;28;46193;-86
2023/06/10 04:56:15;;;;;;;;;1.67;1.00;;;;;;;;5017817;28;46174;-86
2023/06/10 04:58:40;;;;;;;;;1.00;1.00;;;;;;;;5035313;28;45498;-85
2023/06/10 05:01:05;;;;;;;;;2.00;2.00;;;;;;;;5035481;28;45498;-85
2023/06/10 05:03:30;;;;;;;;;4.67;1.00;;;;;;;;5035447;28;46447;-85
2023/06/10 05:05:55;;;;;;;;;2.67;1.67;;;;;;;;5035464;28;45420;-86
2023/06/10 05:08:21;;;;;;;;;2.67;2.00;;;;;;;;5034981;28;45377;-86
2023/06/10 05:10:46;;;;;;;;;2.00;1.00;;;;;;;;5035393;28;45397;-85
2023/06/10 05:13:11;;;;;;;;;3.33;3.00;;;;;;;;5035217;28;46567;-85
2023/06/10 05:15:37;;;;;;;;;4.00;3.00;;;;;;;;5035307;28;45392;-85
2023/06/10 05:18:02;;;;;;;;;2.75;2.00;;;;;;;;5035490;28;45495;-86
2023/06/10 05:20:28;;;;;;;;;5.00;2.50;;;;;;;;5035011;28;45443;-85
2023/06/10 05:22:54;;;;;;;;;3.00;2.00;;;;;;;;5034613;28;45716;-84
2023/06/10 05:25:19;;;;;;;;;2.75;2.00;;;;;;;;5034934;28;45467;-84
2023/06/10 05:27:44;;;;;;;;;2.67;1.00;;;;;;;;5035183;28;45364;-85
2023/06/10 05:30:10;;;;;;;;;4.75;1.00;;;;;;;;5017049;28;45418;-87
2023/06/10 05:32:35;;;;;;;;;1.00;1.00;;;;;;;;5034762;28;46708;-87
2023/06/10 05:35:01;;;;;;;;;4.00;2.67;;;;;;;;5035255;28;45297;-87
2023/06/10 05:37:26;;;;;;;;;3.75;2.00;;;;;;;;5035018;28;45317;-87
2023/06/10 05:39:52;;;;;;;;;3.00;2.00;;;;;;;;5016976;28;45302;-87
2023/06/10 05:42:17;;;;;;;;;2.50;1.00;;;;;;;;5035259;28;46227;-87
2023/06/10 05:44:42;;;;;;;;;4.50;3.00;;;;;;;;5035295;28;45394;-87
2023/06/10 05:47:10;;;;;;;;;5.00;2.00;;;;;;;;5035214;28;45523;-87
2023/06/10 05:49:35;;;;;;;;;4.00;2.25;;;;;;;;5035009;28;45333;-87
2023/06/10 05:52:00;;;;;;;;;7.33;1.67;;;;;;;;5034487;28;46494;-86
2023/06/10 05:54:26;;;;;;;;;5.33;2.00;;;;;;;;5034854;28;45419;-86
2023/06/10 05:56:52;;;;;;;;;4.00;3.00;;;;;;;;5018265;28;45414;-87
2023/06/10 05:59:17;;;;;;;;;6.00;2.75;;;;;;;;5038229;28;45471;-87
2023/06/10 06:01:42;;;;;;;;;2.00;2.00;;;;;;;;5038202;28;45431;-87
2023/06/10 06:04:07;;;;;;;;;3.33;3.33;;;;;;;;5038272;28;45383;-87
2023/06/10 06:06:35;;;;;;;;;3.00;3.00;;;;;;;;5038189;28;45364;-87
2023/06/10 06:09:00;;;;;;;;;4.50;2.25;;;;;;;;5038949;28;45447;-93
2023/06/10 06:11:26;;;;;;;;;2.67;2.33;;;;;;;;5039143;28;45495;-92
2023/06/10 06:13:51;;;;;;;;;2.00;2.00;;;;;;;;5028660;28;45514;-94
2023/06/10 06:16:18;;;;;;;;;4.25;3.00;;;;;;;;5020533;28;45208;-90
2023/06/10 06:18:43;;;;;;;;;4.50;2.25;;;;;;;;5019874;28;45298;-93
2023/06/10 06:21:08;;;;;;;;;3.33;3.33;;;;;;;;5020651;28;45377;-93
2023/06/10 06:23:33;;;;;;;;;4.00;2.33;;;;;;;;5019826;28;45351;-92
2023/06/10 06:25:59;;;;;;;;;6.67;3.00;;;;;;;;5020161;28;45361;-95
2023/06/10 06:28:28;;;;;;;;;3.00;2.00;;;;;;;;5019222;28;45277;-94
2023/06/10 06:30:54;;;;;;;;;6.00;4.00;;;;;;;;5019383;28;46509;-95
2023/06/10 06:33:19;;;;;;;;;3.00;3.00;;;;;;;;5019773;28;45450;-91
2023/06/10 06:35:44;;;;;;;;;4.75;3.00;;;;;;;;5021079;28;45290;-94
2023/06/10 06:38:09;;;;;;;;;3.00;2.00;;;;;;;;5020997;28;45286;-95
2023/06/10 06:40:35;;;;;;;;;2.00;2.00;;;;;;;;5022160;28;45301;-94
2023/06/10 06:43:00;;;;;;;;;4.33;3.00;;;;;;;;5022941;28;45241;-92
2023/06/10 06:45:25;;;;;;;;;4.00;3.67;;;;;;;;5029179;28;45535;-96
2023/06/10 06:47:51;;;;;;;;;2.75;2.75;;;;;;;;5022667;28;45171;-92
2023/06/10 06:50:16;;;;;;;;;4.00;2.00;;;;;;;;5039469;28;47290;-94
2023/06/10 06:52:41;;;;;;;;;2.00;2.00;;;;;;;;5039566;28;45343;-94
2023/06/10 06:55:07;;;;;;;;;3.00;3.00;;;;;;;;5039845;28;45384;-90
2023/06/10 06:57:32;;;;;;;;;3.25;2.00;;;;;;;;5038039;28;46245;-94
2023/06/10 06:59:57;;;;;;;;;3.67;2.00;;;;;;;;5040978;28;46534;-93
2023/06/10 07:02:23;;;;;;;;;2.67;2.00;;;;;;;;5038569;28;45214;-87
2023/06/10 07:04:51;;;;;;;;;4.00;2.75;;;;;;;;5038995;28;45478;-94
2023/06/10 07:07:16;;;;;;;;;2.00;2.00;;;;;;;;5039040;28;45500;-92
2023/06/10 07:09:41;;;;;;;;;3.67;3.00;;;;;;;;5037778;28;46694;-93
2023/06/10 07:12:07;;;;;;;;;3.50;2.00;;;;;;;;5021388;28;45425;-92
2023/06/10 07:14:32;;;;;;;;;1.25;1.00;;;;;;;;5038406;28;45337;-91
2023/06/10 07:16:58;;;;;;;;;2.67;2.67;;;;;;;;5039300;28;45341;-96
2023/06/10 07:19:23;;;;;;;;;1.75;1.75;;;;;;;;5046674;28;45386;-91
2023/06/10 07:21:48;;;;;;;;;2.00;2.00;;;;;;;;5038592;28;45342;-93
2023/06/10 07:24:13;;;;;;;;;2.00;2.00;;;;;;;;5036070;28;45804;-87
2023/06/10 07:26:39;;;;;;;;;3.33;2.00;;;;;;;;5006247;28;45524;-92
2023/06/10 07:29:04;;;;;;;;;3.33;2.00;;;;;;;;5037988;28;46058;-88
2023/06/10 07:31:29;;;;;;;;;3.00;2.25;;;;;;;;5042557;28;45270;-93
2023/06/10 07:33:54;;;;;;;;;4.50;2.50;;;;;;;;5040891;28;45577;-89
2023/06/10 07:36:20;;;;;;;;;4.00;2.00;;;;;;;;5037132;28;45559;-91
2023/06/10 07:38:45;;;;;;;;;2.00;2.00;;;;;;;;5038031;28;46218;-92
2023/06/10 07:41:11;;;;;;;;;2.25;2.25;;;;;;;;5058102;28;45381;-90
2023/06/10 07:43:36;;;;;;;;;1.00;1.00;;;;;;;;5052869;28;45445;-93
2023/06/10 07:46:01;;;;;;;;;2.00;2.00;;;;;;;;5056310;28;45343;-91
2023/06/10 07:48:26;;;;;;;;;2.00;2.00;;;;;;;;5025790;28;47318;-87
2023/06/10 07:50:52;;;;;;;;;2.67;2.00;;;;;;;;5042681;28;45590;-92
2023/06/10 07:53:19;;;;;;;;;2.00;2.00;;;;;;;;5038798;28;45460;-94
2023/06/10 07:55:44;;;;;;;;;2.00;1.00;;;;;;;;5021254;28;45315;-93
2023/06/10 07:58:10;;;;;;;;;3.25;2.00;;;;;;;;5037379;28;46221;-93
2023/06/10 08:00:35;;;;;;;;;3.00;2.00;;;;;;;;5027807;28;45926;-87
2023/06/10 08:03:00;;;;;;;;;2.00;1.25;;;;;;;;5057635;28;45367;-90
2023/06/10 08:05:26;;;;;;;;;1.00;1.00;;;;;;;;5050341;28;45445;-88
2023/06/10 08:07:51;;;;;;;;;2.00;2.00;;;;;;;;5049462;28;46115;-88
2023/06/10 08:10:16;;;;;;;;;2.00;2.00;;;;;;;;5058178;28;45498;-83
2023/06/10 08:12:41;;;;;;;;;2.00;1.00;;;;;;;;5040293;28;45621;-83
2023/06/10 08:15:07;;;;;;;;;1.67;1.67;;;;;;;;5035224;28;45464;-83
2023/06/10 08:17:32;;;;;;;;;5.75;4.00;;;;;;;;5041477;28;45473;-84
2023/06/10 08:19:57;;;;;;;;;3.00;2.75;;;;;;;;5048167;28;45518;-85
2023/06/10 08:22:23;;;;;;;;;3.00;3.00;;;;;;;;5035608;28;45456;-84
2023/06/10 08:24:48;;;;;;;;;3.33;2.00;;;;;;;;5017956;28;45565;-85
2023/06/10 08:27:13;;;;;;;;;4.33;2.00;;;;;;;;5041007;28;46277;-85
2023/06/10 08:29:39;;;;;;;;;1.33;1.33;;;;;;;;5043339;28;45555;-87
2023/06/10 08:32:04;;;;;;;;;1.00;1.00;;;;;;;;5053421;28;45396;-89
2023/06/10 08:34:29;;;;;;;;;4.50;1.75;;;;;;;;5037137;28;45396;-92
2023/06/10 08:36:55;;;;;;;;;3.33;2.33;;;;;;;;5037420;28;46165;-91
2023/06/10 08:39:21;;;;;;;;;2.00;1.25;;;;;;;;5037267;28;45384;-92
2023/06/10 08:42:00;;;;;;;;;3.75;1.50;;;;;;;;5037492;28;45469;-92
2023/06/10 08:44:28;;;;;;;;;4.00;3.00;;;;;;;;5040875;28;45570;-91
2023/06/10 08:46:55;;;;;;;;;3.25;2.00;;;;;;;;5048604;28;46648;-92
2023/06/10 08:49:22;;;;;;;;;2.00;1.25;;;;;;;;5039881;28;45594;-87
2023/06/10 08:51:55;;;;;;;;;2.25;2.25;;;;;;;;5017569;28;45599;-87
2023/06/10 08:54:24;;;;;;;;;2.00;2.00;;;;;;;;5023792;28;45463;-90
2023/06/10 08:56:51;;;;;;;;;2.00;2.00;;;;;;;;5036699;28;45391;-93
2023/06/10 08:59:16;;;;;;;;;3.25;3.00;;;;;;;;5036965;28;45309;-93
2023/06/10 09:01:42;;;;;;;;;1.75;1.00;;;;;;;;5037488;28;45468;-93
2023/06/10 09:04:07;;;;;;;;;4.00;2.50;;;;;;;;5037783;28;45306;-94
2023/06/10 09:06:33;;;;;;;;;3.33;2.00;;;;;;;;5030411;28;46074;-93
2023/06/10 09:08:59;;;;;;;;;2.50;2.00;;;;;;;;5017166;28;45317;-92
2023/06/10 09:11:24;;;;;;;;;1.75;0.50;;;;;;;;5017412;28;45358;-96
2023/06/10 09:13:50;;;;;;;;;6.25;2.50;;;;;;;;5028645;28;45357;-93
2023/06/10 09:16:16;;;;;;;;;2.33;0.33;;;;;;;;5036556;28;46120;-92
2023/06/10 09:18:41;;;;;;;;;1.75;1.75;;;;;;;;5035543;28;45361;-91
2023/06/10 09:21:06;;;;;;;;;3.00;2.00;;;;;;;;5036700;28;45333;-92
2023/06/10 09:23:32;;;;;;;;;2.00;2.00;;;;;;;;5037807;28;45428;-91
2023/06/10 09:25:57;;;;;;;;;2.50;2.25;;;;;;;;5035776;28;45305;-92
2023/06/10 09:28:23;;;;;;;;;1.75;1.00;;;;;;;;5036688;28;45258;-92
2023/06/10 09:30:48;;;;;;;;;3.50;2.75;;;;;;;;5036683;28;45386;-94
2023/06/10 09:33:17;;;;;;;;;0.33;0.33;;;;;;;;5050058;28;45678;-93
2023/06/10 09:35:46;;;;;;;;;3.75;2.25;;;;;;;;5059220;28;45550;-95
2023/06/10 09:38:12;;;;;;;;;1.75;1.50;;;;;;;;5040290;28;45329;-92
2023/06/10 09:40:48;;;;;;;;;2.25;1.25;;;;;;;;5047143;28;45477;-91
2023/06/10 09:43:14;;;;;;;;;5.00;3.00;;;;;;;;5045161;28;45394;-92
2023/06/10 09:45:39;;;;;;;;;1.00;1.00;;;;;;;;5040402;28;46263;-91
2023/06/10 09:48:05;;;;;;;;;3.00;2.00;;;;;;;;5041262;28;45428;-93
2023/06/10 09:50:32;;;;;;;;;1.00;1.00;;;;;;;;5040545;28;45452;-94
2023/06/10 09:52:58;;;;;;;;;1.00;1.00;;;;;;;;5049472;28;45392;-95
2023/06/10 09:55:23;;;;;;;;;0.00;0.00;;;;;;;;5015230;28;48250;-94
2023/06/10 09:57:53;;;;;;;;;1.00;1.00;;;;;;;;5004119;28;45440;-96
2023/06/10 10:00:19;;;;;;;;;3.75;1.00;;;;;;;;5003838;28;45296;-95
2023/06/10 10:02:48;;;;;;;;;1.00;1.00;;;;;;;;5005546;28;45642;-96
2023/06/10 10:05:17;;;;;;;;;2.25;1.00;;;;;;;;5046461;28;45697;-96
2023/06/10 10:07:43;;;;;;;;;0.00;0.00;;;;;;;;5031953;28;45731;-91
2023/06/10 10:10:09;;;;;;;;;2.75;0.00;;;;;;;;5040319;28;45358;-94
2023/06/10 10:12:35;;;;;;;;;2.00;1.50;;;;;;;;5051795;28;45610;-90
2023/06/10 10:15:02;;;;;;;;;0.25;0.00;;;;;;;;5046905;28;45636;-90
2023/06/10 10:17:36;;;;;;;;;4.25;1.25;;;;;;;;5061521;28;45261;-94
2023/06/10 10:20:03;;;;;;;;;1.00;1.00;;;;;;;;5063266;28;45506;-95
2023/06/10 10:22:37;;;;;;;;;1.25;0.00;;;;;;;;5042648;28;45416;-94
2023/06/10 10:25:05;;;;;;;;;3.25;0.00;;;;;;;;5053788;28;47252;-96
2023/06/10 10:27:34;;;;;;;;;2.50;1.75;;;;;;;;5043877;28;45642;-94
2023/06/10 10:30:01;;;;;;;;;3.75;1.00;;;;;;;;5060953;28;45289;-94
2023/06/10 10:32:35;;;;;;;;;5.00;1.00;;;;;;;;5061532;28;45690;-95
2023/06/10 10:35:00;;;;;;;;;1.25;0.75;;;;;;;;5060874;28;46481;-94
2023/06/10 10:37:26;;;;;;;;;2.67;0.33;;;;;;;;5064661;28;45344;-94
2023/06/10 10:39:51;;;;;;;;;1.50;1.50;;;;;;;;5025624;28;45401;-94
2023/06/10 10:42:17;;;;;;;;;4.00;1.00;;;;;;;;5041906;28;45591;-89
2023/06/10 10:44:42;;;;;;;;;1.50;1.00;;;;;;;;5027733;28;46727;-93
2023/06/10 10:47:09;;;;;;;;;3.75;1.50;;;;;;;;5062618;28;45493;-93
2023/06/10 10:49:35;;;;;;;;;1.00;1.00;;;;;;;;5021963;28;45433;-87
2023/06/10 10:52:01;;;;;;;;;5.50;4.00;;;;;;;;5021857;28;45429;-94
2023/06/10 10:54:30;;;;;;;;;2.00;1.00;;;;;;;;5022391;28;47481;-93
2023/06/10 10:57:11;;;;;;;;;2.00;1.50;;;;;;;;5040166;28;45322;-93
2023/06/10 10:59:48;;;;;;;;;3.00;2.00;;;;;;;;5041990;28;45465;-93
2023/06/10 11:02:32;;;;;;;;;2.25;1.00;;;;;;;;5051802;28;45332;-92
2023/06/10 11:04:57;;;;;;;;;1.00;1.00;;;;;;;;5019784;28;47696;-86
2023/06/10 11:07:24;;;;;;;;;4.00;1.25;;;;;;;;5029186;28;45378;-95
2023/06/10 11:10:00;;;;;;;;;1.50;0.00;;;;;;;;5055089;28;45230;-85
2023/06/10 11:12:25;;;;;;;;;1.50;1.50;;;;;;;;5037652;28;45639;-87
2023/06/10 11:14:57;;;;;;;;;3.00;1.00;;;;;;;;5037340;28;45767;-92
2023/06/10 11:17:24;;;;;;;;;4.00;1.75;;;;;;;;5039553;28;45359;-91
2023/06/10 11:19:49;;;;;;;;;2.00;2.00;;;;;;;;5039643;28;45140;-83
2023/06/10 11:22:16;;;;;;;;;1.33;1.33;;;;;;;;5036047;28;45279;-82
2023/06/10 11:24:42;;;;;;;;;1.75;1.00;;;;;;;;5047764;28;46249;-83
2023/06/10 11:27:17;;;;;;;;;1.67;1.67;;;;;;;;5036822;28;45353;-84
2023/06/10 11:30:17;;;;;;;;;3.00;1.00;;;;;;;;5037081;28;45376;-83
2023/06/10 11:32:42;;;;;;;;;1.75;1.00;;;;;;;;5037256;28;45160;-83
2023/06/10 11:35:08;;;;;;;;;3.75;2.25;;;;;;;;5036860;28;46490;-83
2023/06/10 11:37:33;;;;;;;;;0.75;0.75;;;;;;;;5037404;28;45430;-83
2023/06/10 11:39:58;;;;;;;;;2.33;2.33;;;;;;;;5036872;28;45343;-84
2023/06/10 11:42:24;;;;;;;;;0.50;0.50;;;;;;;;5037343;28;45275;-83
2023/06/10 11:44:50;;;;;;;;;3.00;1.00;;;;;;;;5036986;28;46229;-84
2023/06/10 11:47:15;;;;;;;;;1.75;1.75;;;;;;;;5036836;28;45338;-83
2023/06/10 11:49:40;;;;;;;;;2.00;2.00;;;;;;;;5037037;28;45644;-83
2023/06/10 11:52:06;;;;;;;;;2.00;1.00;;;;;;;;5036936;28;45431;-83
2023/06/10 11:54:31;;;;;;;;;3.00;1.75;;;;;;;;5035801;28;46162;-83
2023/06/10 11:56:57;;;;;;;;;2.33;2.00;;;;;;;;5019082;28;45492;-84
2023/06/10 11:59:27;;;;;;;;;2.00;2.00;;;;;;;;5036854;28;45498;-83
2023/06/10 12:01:52;;;;;;;;;3.00;1.75;;;;;;;;5018771;28;45580;-84
2023/06/10 12:04:21;;;;;;;;;2.00;1.33;;;;;;;;5036782;28;46283;-83
2023/06/10 12:06:47;;;;;;;;;3.75;1.75;;;;;;;;5036578;28;45353;-84
2023/06/10 12:09:33;;;;;;;;;1.50;1.25;;;;;;;;5036185;28;45381;-84
2023/06/10 12:11:59;;;;;;;;;1.75;1.75;;;;;;;;5036115;28;45595;-83
2023/06/10 12:14:43;;;;;;;;;1.50;1.00;;;;;;;;5036442;28;45412;-83
2023/06/10 12:17:08;;;;;;;;;3.50;1.50;;;;;;;;5036564;28;45416;-84
2023/06/10 12:19:38;;;;;;;;;4.33;2.00;;;;;;;;5036632;28;45343;-83
2023/06/10 12:22:03;;;;;;;;;0.25;0.25;;;;;;;;5036240;28;45391;-83
2023/06/10 12:24:28;;;;;;;;;2.50;1.00;;;;;;;;5018515;28;48400;-83
2023/06/10 12:26:55;;;;;;;;;0.00;0.00;;;;;;;;5036460;28;45311;-84
2023/06/10 12:29:24;;;;;;;;;1.25;1.25;;;;;;;;5036287;28;45709;-83
2023/06/10 12:31:53;;;;;;;;;4.00;0.50;;;;;;;;5036388;28;45583;-84
2023/06/10 12:34:18;;;;;;;;;3.00;3.00;;;;;;;;5036149;28;45385;-83
2023/06/10 12:36:48;;;;;;;;;2.67;2.67;;;;;;;;5036058;28;45329;-84
2023/06/10 12:39:13;;;;;;;;;1.00;1.00;;;;;;;;5036363;28;45420;-84
2023/06/10 12:41:38;;;;;;;;;1.00;1.00;;;;;;;;5036189;28;45417;-81
2023/06/10 12:44:04;;;;;;;;;3.00;2.50;;;;;;;;5036133;28;45345;-81
2023/06/10 12:46:35;;;;;;;;;3.00;2.00;;;;;;;;5035934;28;45436;-81
2023/06/10 12:49:00;;;;;;;;;3.00;0.50;;;;;;;;5036156;28;45372;-84
2023/06/10 12:51:26;;;;;;;;;3.00;2.00;;;;;;;;5035806;28;45317;-84
2023/06/10 12:53:52;;;;;;;;;4.33;1.00;;;;;;;;5035876;28;46297;-83
2023/06/10 12:56:17;;;;;;;;;1.00;1.00;;;;;;;;5035969;28;45407;-83
2023/06/10 12:58:42;;;;;;;;;2.67;2.00;;;;;;;;5035976;28;45637;-83
2023/06/10 13:01:07;;;;;;;;;3.33;1.00;;;;;;;;5035962;28;45444;-84
2023/06/10 13:03:33;;;;;;;;;2.00;1.00;;;;;;;;5017744;28;48290;-83
2023/06/10 13:05:58;;;;;;;;;2.00;2.00;;;;;;;;5034729;28;45643;-84
2023/06/10 13:08:23;;;;;;;;;2.00;2.00;;;;;;;;5035941;28;45462;-84
2023/06/10 13:10:48;;;;;;;;;1.00;1.00;;;;;;;;5035604;28;45453;-83
2023/06/10 13:13:14;;;;;;;;;1.00;1.00;;;;;;;;5035464;28;46322;-83
2023/06/10 13:15:40;;;;;;;;;0.75;0.75;;;;;;;;5035688;28;45451;-84
2023/06/10 13:18:05;;;;;;;;;1.25;1.25;;;;;;;;5017957;28;45417;-84
2023/06/10 13:20:30;;;;;;;;;3.33;1.67;;;;;;;;5035239;28;45495;-84
2023/06/10 13:22:56;;;;;;;;;1.50;1.00;;;;;;;;5035563;28;46112;-83
2023/06/10 13:25:21;;;;;;;;;0.50;0.50;;;;;;;;5035519;28;45325;-83
2023/06/10 13:27:46;;;;;;;;;2.67;2.00;;;;;;;;5035688;28;45388;-84
2023/06/10 13:30:12;;;;;;;;;2.50;2.00;;;;;;;;5035499;28;45324;-84
2023/06/10 13:32:37;;;;;;;;;1.00;1.00;;;;;;;;5035276;28;45973;-83
2023/06/10 13:35:03;;;;;;;;;3.25;1.50;;;;;;;;5035173;28;45277;-83
2023/06/10 13:37:28;;;;;;;;;3.50;1.25;;;;;;;;5035639;28;45316;-84
2023/06/10 13:39:53;;;;;;;;;3.00;1.00;;;;;;;;5035220;28;45350;-84
2023/06/10 13:42:18;;;;;;;;;1.00;1.00;;;;;;;;5035362;28;47183;-81
2023/06/10 13:44:44;;;;;;;;;2.25;2.00;;;;;;;;5035371;28;45377;-80
2023/06/10 13:47:09;;;;;;;;;1.00;1.00;;;;;;;;5035256;28;45309;-84
2023/06/10 13:49:34;;;;;;;;;4.00;0.67;;;;;;;;5034845;28;45527;-83
2023/06/10 13:51:59;;;;;;;;;1.75;1.25;;;;;;;;5035077;28;46203;-83
2023/06/10 13:54:25;;;;;;;;;4.00;1.33;;;;;;;;5035305;28;45300;-84
2023/06/10 13:56:50;;;;;;;;;4.50;1.75;;;;;;;;5035365;28;45391;-83
2023/06/10 13:59:15;;;;;;;;;1.67;1.67;;;;;;;;5035170;28;45274;-83
2023/06/10 14:01:40;;;;;;;;;2.33;2.00;;;;;;;;5035026;28;47200;-83
2023/06/10 14:04:06;;;;;;;;;1.00;1.00;;;;;;;;5034708;28;45452;-82
2023/06/10 14:06:32;;;;;;;;;2.25;2.00;;;;;;;;5035283;28;45455;-83
2023/06/10 14:08:57;;;;;;;;;2.00;2.00;;;;;;;;5035117;28;45521;-83
2023/06/10 14:11:22;;;;;;;;;1.33;1.00;;;;;;;;5034746;28;46121;-83
2023/06/10 14:13:48;;;;;;;;;3.33;2.67;;;;;;;;5034689;28;45352;-83
2023/06/10 14:16:13;;;;;;;;;3.75;2.00;;;;;;;;5035111;28;45458;-83
2023/06/10 14:18:38;;;;;;;;;3.67;1.00;;;;;;;;5036878;28;45445;-83
2023/06/10 14:21:03;;;;;;;;;1.00;1.00;;;;;;;;5038196;28;46170;-83
2023/06/10 14:23:29;;;;;;;;;2.00;1.33;;;;;;;;5038295;28;45618;-82
2023/06/10 14:25:54;;;;;;;;;1.00;1.00;;;;;;;;5038372;28;45479;-83
2023/06/10 14:28:19;;;;;;;;;5.67;2.00;;;;;;;;5038303;28;45238;-83
2023/06/10 14:30:44;;;;;;;;;5.00;2.33;;;;;;;;5037935;28;45423;-83
2023/06/10 14:33:10;;;;;;;;;1.33;1.00;;;;;;;;5037808;28;45506;-83
2023/06/10 14:35:35;;;;;;;;;1.50;1.00;;;;;;;;5038298;28;45385;-83
2023/06/10 14:38:00;;;;;;;;;1.00;1.00;;;;;;;;5038151;28;45379;-82